Time;durP1;ratioP1;P1;durP2;ratioP2;P2;SDS_P1;SDS_P2;PMS_P1;PMS_P2;Temp;Humidity;BMP_temperature;BMP_pressure;BME280_temperature;BME280_humidity;BME280_pressure;Samples;Min_cycle;Max_cycle;Signal;HPM_P1;HPM_P2
2023/07/16 00:02:05;;;;;;;7.40;6.68;;;;;;;22.64;100.00;-9599.03;5093621;28;20534;-58
2023/07/16 00:04:33;;;;;;;7.20;6.57;;;;;;;22.47;100.00;-9922.00;5093358;28;20184;-56
2023/07/16 00:07:00;;;;;;;11.48;7.47;;;;;;;22.35;100.00;-11543.44;5093396;28;20187;-57
2023/07/16 00:09:27;;;;;;;8.60;6.88;;;;;;;22.43;100.00;-12193.38;5093477;28;20627;-59
2023/07/16 00:11:54;;;;;;;11.40;6.45;;;;;;;22.35;100.00;-9920.78;5092997;28;20200;-57
2023/07/16 00:14:21;;;;;;;9.48;6.18;;;;;;;22.39;100.00;-9596.59;5093115;28;20184;-58
2023/07/16 00:16:50;;;;;;;27.35;9.70;;;;;;;22.49;100.00;-8948.06;5092959;28;20184;-57
2023/07/16 00:19:16;;;;;;;26.98;11.77;;;;;;;22.54;100.00;-10572.06;5093413;28;20630;-59
2023/07/16 00:21:43;;;;;;;10.88;6.88;;;;;;;22.49;100.00;-9597.50;5092948;28;20192;-61
2023/07/16 00:24:10;;;;;;;7.80;7.18;;;;;;;22.44;100.00;-11220.06;5093129;28;20195;-56
2023/07/16 00:26:37;;;;;;;7.55;6.78;;;;;;;22.37;100.00;-10894.69;5093128;28;20578;-58
2023/07/16 00:29:04;;;;;;;9.63;7.05;;;;;;;22.14;100.00;-12513.75;5092655;28;20184;-57
2023/07/16 00:31:31;;;;;;;9.68;6.97;;;;;;;22.25;100.00;-11542.28;5092746;28;20192;-57
2023/07/16 00:33:59;;;;;;;9.15;6.35;;;;;;;22.38;100.00;-9596.44;5092905;28;20551;-56
2023/07/16 00:36:26;;;;;;;6.60;6.13;;;;;;;22.40;100.00;-8622.47;5092943;28;20634;-57
2023/07/16 00:38:53;;;;;;;7.10;6.20;;;;;;;22.39;100.00;-8622.41;5092364;28;20192;-57
2023/07/16 00:41:20;;;;;;;6.45;5.85;;;;;;;22.36;100.00;-8946.94;5092388;28;20188;-57
2023/07/16 00:43:47;;;;;;;6.63;5.85;;;;;;;22.29;100.00;-10244.84;5093507;28;20188;-57
2023/07/16 00:46:14;;;;;;;7.38;6.68;;;;;;;22.38;100.00;-10894.81;5092689;28;20255;-57
2023/07/16 00:48:41;;;;;;;13.50;6.97;;;;;;;22.35;100.00;-11219.03;5092757;28;20663;-57
2023/07/16 00:51:10;;;;;;;9.63;6.85;;;;;;;22.51;100.00;-11220.94;5091988;28;20318;-57
2023/07/16 00:53:37;;;;;;;13.75;6.97;;;;;;;22.57;100.00;-11546.25;5092190;28;20586;-57
2023/07/16 00:56:04;;;;;;;7.45;6.60;;;;;;;22.59;100.00;-11221.91;5092507;28;20649;-57
2023/07/16 00:58:31;;;;;;;7.20;6.50;;;;;;;22.39;100.00;-11219.53;5092944;28;20188;-58
2023/07/16 01:00:58;;;;;;;7.18;6.40;;;;;;;22.47;100.00;-11544.97;5092106;28;20278;-57
2023/07/16 01:03:25;;;;;;;7.07;6.40;;;;;;;22.30;100.00;-13164.66;5092563;28;20623;-57
2023/07/16 01:06:01;;;;;;;7.50;6.47;;;;;;;22.15;100.00;-13162.34;5092090;28;20200;-56
2023/07/16 01:08:34;;;;;;;6.72;6.13;;;;;;;22.05;100.00;-13809.00;5092338;28;20183;-57
2023/07/16 01:11:02;;;;;;;7.50;6.22;;;;;;;22.07;100.00;-11864.25;5092245;28;20187;-56
2023/07/16 01:13:29;;;;;;;9.23;6.38;;;;;;;22.09;100.00;-11540.22;5091952;28;20200;-56
2023/07/16 01:15:56;;;;;;;9.90;6.40;;;;;;;22.18;100.00;-11216.94;5091927;28;20259;-56
2023/07/16 01:18:23;;;;;;;17.60;6.63;;;;;;;22.07;100.00;-11539.94;5091882;28;20188;-56
2023/07/16 01:20:50;;;;;;;8.00;7.25;;;;;;;22.14;100.00;-12513.69;5091807;28;20211;-58
2023/07/16 01:23:36;;;;;;;13.07;6.63;;;;;;;21.89;100.00;-12834.25;5091827;28;20188;-56
2023/07/16 01:26:11;;;;;;;9.70;6.95;;;;;;;21.83;100.00;-13481.38;5091676;28;20275;-57
2023/07/16 01:29:27;;;;;;;11.65;6.28;;;;;;;21.68;100.00;-13802.97;5091966;28;20648;-58
2023/07/16 01:31:56;;;;;;;6.78;6.10;;;;;;;21.73;100.00;-13479.88;4990201;28;20712;-57
2023/07/16 01:34:27;;;;;;;7.57;6.53;;;;;;;21.87;100.00;-12833.94;4990247;28;20597;-58
2023/07/16 01:36:54;;;;;;;13.05;9.85;;;;;;;21.93;100.00;-12510.72;4990302;28;20199;-57
2023/07/16 01:39:21;;;;;;;10.75;7.97;;;;;;;21.90;100.00;-13158.38;4990102;28;20548;-56
2023/07/16 01:41:48;;;;;;;8.75;8.00;;;;;;;21.77;100.00;-13156.44;4990077;28;20198;-57
2023/07/16 01:44:15;;;;;;;8.40;7.13;;;;;;;22.11;100.00;-12837.53;4990153;28;20200;-57
2023/07/16 01:46:43;;;;;;;8.00;7.20;;;;;;;22.28;100.00;-12191.44;4990140;28;20202;-57
2023/07/16 01:49:10;;;;;;;8.40;6.72;;;;;;;22.19;100.00;-11541.50;4990093;28;20210;-57
2023/07/16 01:51:37;;;;;;;6.97;6.30;;;;;;;22.20;100.00;-12514.53;4977956;28;20231;-58
2023/07/16 01:54:04;;;;;;;8.82;6.50;;;;;;;21.99;100.00;-13483.88;4970516;28;20223;-56
2023/07/16 01:56:31;;;;;;;11.02;6.30;;;;;;;21.87;100.00;-14129.97;4970647;28;20203;-59
2023/07/16 01:58:58;;;;;;;9.95;6.25;;;;;;;21.79;100.00;-14452.50;4970507;28;20195;-57
2023/07/16 02:01:24;;;;;;;10.90;8.50;;;;;;;21.90;100.00;-13806.50;4972749;28;20188;-58
2023/07/16 02:03:53;;;;;;;18.15;7.93;;;;;;;21.82;100.00;-14129.13;5073907;28;20180;-57
2023/07/16 02:06:20;;;;;;;7.22;6.60;;;;;;;21.71;100.00;-13479.47;5075414;28;20578;-57
2023/07/16 02:08:46;;;;;;;8.10;7.50;;;;;;;21.97;100.00;-13159.47;5075568;28;20200;-57
2023/07/16 02:11:13;;;;;;;8.00;7.32;;;;;;;21.96;100.00;-14455.50;5075388;28;20185;-57
2023/07/16 02:13:40;;;;;;;11.30;8.52;;;;;;;21.78;100.00;-14128.53;5075421;28;20212;-57
2023/07/16 02:16:07;;;;;;;16.92;7.88;;;;;;;22.03;100.00;-14132.72;5075031;28;20289;-57
2023/07/16 02:18:34;;;;;;;9.60;7.18;;;;;;;22.07;100.00;-14133.41;5075229;28;20200;-57
2023/07/16 02:21:02;;;;;;;9.20;7.03;;;;;;;22.04;100.00;-14456.91;5074996;28;20193;-57
2023/07/16 02:23:29;;;;;;;7.22;6.72;;;;;;;22.13;100.00;-14458.41;5075800;28;20238;-58
2023/07/16 02:25:56;;;;;;;7.90;6.95;;;;;;;22.15;100.00;-15106.88;5075576;28;20189;-58
2023/07/16 02:28:23;;;;;;;7.50;6.90;;;;;;;21.96;100.00;-15103.34;5074912;28;20281;-57
2023/07/16 02:30:50;;;;;;;6.90;6.50;;;;;;;21.95;100.00;-15103.06;5074773;28;20184;-57
2023/07/16 02:33:17;;;;;;;7.97;7.18;;;;;;;21.83;100.00;-15748.53;5075099;28;20208;-57
2023/07/16 02:35:48;;;;;;;7.25;6.38;;;;;;;21.81;100.00;-15748.13;5074859;28;20193;-57
2023/07/16 02:38:16;;;;;;;7.80;7.20;;;;;;;21.89;100.00;-15102.06;5074779;28;20243;-57
2023/07/16 02:40:45;;;;;;;7.32;6.88;;;;;;;21.94;100.00;-15426.84;5074576;28;20215;-58
2023/07/16 02:43:12;;;;;;;10.07;7.70;;;;;;;21.79;100.00;-14452.50;5074799;28;20610;-57
2023/07/16 02:45:39;;;;;;;7.93;7.22;;;;;;;21.63;100.00;-15097.31;5074749;28;20189;-58
2023/07/16 02:48:07;;;;;;;8.10;7.30;;;;;;;21.68;100.00;-14774.47;5074418;28;20271;-59
2023/07/16 02:50:35;;;;;;;8.23;7.57;;;;;;;21.84;100.00;-15424.94;5078197;28;20685;-57
2023/07/16 02:53:02;;;;;;;8.75;7.25;;;;;;;21.82;100.00;-15100.75;5094552;28;20300;-57
2023/07/16 02:55:30;;;;;;;10.45;7.97;;;;;;;21.85;100.00;-15101.31;5076590;28;20201;-57
2023/07/16 02:57:57;;;;;;;9.68;8.55;;;;;;;21.74;100.00;-14451.72;5095217;28;20185;-58
2023/07/16 03:00:24;;;;;;;8.35;7.72;;;;;;;21.31;100.00;-15415.00;5094837;28;20191;-57
2023/07/16 03:02:51;;;;;;;8.68;7.70;;;;;;;21.37;100.00;-15416.03;5094467;28;20252;-57
2023/07/16 03:05:18;;;;;;;11.82;8.13;;;;;;;21.60;100.00;-15420.44;5094743;28;20191;-58
2023/07/16 03:07:45;;;;;;;14.10;9.07;;;;;;;21.59;100.00;-15420.16;5094888;28;20217;-58
2023/07/16 03:10:12;;;;;;;15.98;8.52;;;;;;;21.85;100.00;-15425.13;5094616;28;20181;-57
2023/07/16 03:12:40;;;;;;;14.13;9.02;;;;;;;21.93;100.00;-15102.81;5094607;28;20550;-58
2023/07/16 03:15:08;;;;;;;9.40;7.63;;;;;;;21.88;100.00;-15425.72;5093438;28;20207;-57
2023/07/16 03:17:35;;;;;;;9.23;8.38;;;;;;;22.06;100.00;-15753.06;5094477;28;20199;-57
2023/07/16 03:20:04;;;;;;;8.23;7.47;;;;;;;22.24;100.00;-16080.53;5094463;28;20257;-58
2023/07/16 03:22:31;;;;;;;8.07;7.35;;;;;;;22.80;100.00;-16740.00;5094312;28;20616;-58
2023/07/16 03:24:58;;;;;;;10.63;7.90;;;;;;;23.32;100.00;-11880.75;5094088;28;20195;-58
2023/07/16 03:27:25;;;;;;;8.40;7.40;;;;;;;24.00;100.00;-485.41;5093940;28;20180;-58
2023/07/16 03:29:53;;;;;;;7.53;7.13;;;;;;;24.53;100.00;14579.13;5093831;28;20203;-57
2023/07/16 03:32:20;;;;;;;7.80;7.22;;;;;;;24.76;100.00;27084.66;5093984;28;20188;-57
2023/07/16 03:34:46;;;;;;;9.60;7.25;;;;;;;25.02;100.00;33697.56;5094512;28;20207;-57
2023/07/16 03:37:13;;;;;;;7.32;6.82;;;;;;;24.88;100.00;25442.97;5094062;28;20498;-57
2023/07/16 03:39:40;;;;;;;8.07;7.45;;;;;;;24.65;100.00;19838.53;5094043;28;20184;-57
2023/07/16 03:42:07;;;;;;;8.23;7.63;;;;;;;24.79;100.00;21817.22;5093584;28;20184;-57
2023/07/16 03:44:34;;;;;;;8.50;7.80;;;;;;;24.84;100.00;22477.44;5093930;28;20203;-57
2023/07/16 03:47:02;;;;;;;8.65;8.13;;;;;;;24.96;100.00;19521.13;5093572;28;20188;-59
2023/07/16 03:49:29;;;;;;;8.00;7.28;;;;;;;25.07;100.00;21828.69;5093478;28;20223;-57
2023/07/16 03:51:56;;;;;;;10.52;7.90;;;;;;;25.19;100.00;23480.00;5094233;28;20231;-57
2023/07/16 03:54:22;;;;;;;7.53;7.13;;;;;;;25.55;100.00;28443.28;5093662;28;20261;-58
2023/07/16 03:56:49;;;;;;;7.68;6.88;;;;;;;25.67;100.00;39693.44;5093431;28;20634;-58
2023/07/16 03:59:16;;;;;;;8.05;7.25;;;;;;;25.84;100.00;45011.09;5093469;28;20180;-58
2023/07/16 04:01:43;;;;;;;7.90;7.15;;;;;;;25.61;100.00;51634.16;5093557;28;20279;-58
2023/07/16 04:04:11;;;;;;;9.57;7.20;;;;;;;26.34;100.00;66039.84;5093313;28;20191;-57
2023/07/16 04:06:38;;;;;;;8.85;7.28;;;;;;;26.82;100.00;98690.53;5093383;28;20200;-58
2023/07/16 04:09:05;;;;;;;11.13;6.72;;;;;;;27.13;100.00;130981.69;5093065;28;20184;-58
2023/07/16 04:11:32;;;;;;;12.10;7.30;;;;;;;27.17;100.00;146547.38;5092970;28;20187;-57
2023/07/16 04:13:59;;;;;;;8.80;6.90;;;;;;;27.06;100.00;136423.69;5093269;28;20619;-57
2023/07/16 04:16:25;;;;;;;8.35;7.68;;;;;;;26.95;100.00;133668.75;5093085;28;20201;-58
2023/07/16 04:18:52;;;;;;;8.38;7.60;;;;;;;26.91;100.00;124122.78;5093257;28;20279;-57
2023/07/16 04:21:21;;;;;;;10.85;7.53;;;;;;;26.82;100.00;108157.44;5092904;28;20191;-58
2023/07/16 04:23:47;;;;;;;12.00;7.70;;;;;;;26.74;100.00;101378.25;5093131;28;20184;-57
2023/07/16 04:26:14;;;;;;;8.27;7.60;;;;;;;26.69;100.00;96643.31;5092272;28;20179;-58
2023/07/16 04:28:41;;;;;;;8.27;7.68;;;;;;;26.88;100.00;95999.38;5092715;28;20192;-56
2023/07/16 04:31:08;;;;;;;12.23;6.68;;;;;;;27.02;100.00;106837.59;5092921;28;20180;-58
2023/07/16 04:33:35;;;;;;;7.43;6.72;;;;;;;27.14;100.00;115673.94;5092754;28;20223;-59
2023/07/16 04:36:01;;;;;;;6.70;6.30;;;;;;;27.37;100.00;139570.16;5092970;28;20610;-58
2023/07/16 04:38:30;;;;;;;8.73;7.32;;;;;;;27.54;100.00;137899.28;5092748;28;20191;-57
2023/07/16 04:40:56;;;;;;;15.35;6.90;;;;;;;27.75;100.00;153022.09;5092740;28;20184;-58
2023/07/16 04:43:23;;;;;;;6.85;6.18;;;;;;;27.73;100.00;153015.66;5092829;28;20581;-58
2023/07/16 04:45:51;;;;;;;7.20;5.93;;;;;;;28.06;100.00;153100.13;5092756;28;20188;-58
2023/07/16 04:48:17;;;;;;;10.30;6.53;;;;;;;28.16;100.00;153125.78;5092362;28;20183;-58
2023/07/16 04:50:44;;;;;;;13.85;6.60;;;;;;;28.34;100.00;153170.59;5092928;28;20228;-59
2023/07/16 04:53:11;;;;;;;7.72;6.75;;;;;;;28.49;100.00;153210.25;5092433;28;20180;-57
2023/07/16 04:55:40;;;;;;;11.45;7.03;;;;;;;28.58;100.00;153233.31;5092195;28;20188;-58
2023/07/16 04:58:07;;;;;;;10.65;6.10;;;;;;;28.75;100.00;153275.63;5092104;28;20188;-57
2023/07/16 05:00:34;;;;;;;5.97;5.55;;;;;;;28.87;100.00;153306.34;5092378;28;20191;-58
2023/07/16 05:03:01;;;;;;;6.22;4.80;;;;;;;28.79;100.00;153284.56;5093189;28;20616;-58
2023/07/16 05:05:28;;;;;;;5.40;4.82;;;;;;;28.67;100.00;153253.81;5092336;28;20184;-60
2023/07/16 05:07:55;;;;;;;5.43;4.82;;;;;;;28.60;100.00;153237.19;5092041;28;20191;-57
2023/07/16 05:10:22;;;;;;;4.72;4.50;;;;;;;28.79;100.00;153284.56;5092169;28;20192;-58
2023/07/16 05:12:50;;;;;;;5.07;4.78;;;;;;;28.74;100.00;153271.75;5092416;28;20188;-58
2023/07/16 05:15:17;;;;;;;4.85;4.13;;;;;;;28.71;100.00;153264.09;5092435;28;20574;-59
2023/07/16 05:17:44;;;;;;;4.25;3.95;;;;;;;28.95;100.00;153325.53;5091891;28;20661;-58
2023/07/16 05:20:11;;;;;;;4.22;3.92;;;;;;;28.96;100.00;153329.41;5092394;28;20552;-58
2023/07/16 05:22:38;;;;;;;4.13;3.72;;;;;;;29.19;100.00;153385.78;5091852;28;20191;-57
2023/07/16 05:25:06;;;;;;;4.18;3.88;;;;;;;29.21;100.00;153390.88;5092117;28;20180;-58
2023/07/16 05:27:33;;;;;;;4.35;4.00;;;;;;;29.34;100.00;153425.50;5091805;28;20195;-58
2023/07/16 05:30:01;;;;;;;5.18;3.85;;;;;;;28.78;100.00;153282.00;5091707;28;20255;-57
2023/07/16 05:32:28;;;;;;;4.72;4.32;;;;;;;29.15;100.00;153376.81;5092023;28;20194;-58
2023/07/16 05:34:55;;;;;;;3.83;3.63;;;;;;;29.22;100.00;153394.72;5091607;28;20211;-58
2023/07/16 05:37:22;;;;;;;4.15;3.95;;;;;;;29.44;100.00;153451.16;5091214;28;20271;-58
2023/07/16 05:39:49;;;;;;;3.95;3.75;;;;;;;29.74;100.00;153525.44;5091884;28;20184;-58
2023/07/16 05:42:15;;;;;;;4.03;3.75;;;;;;;29.97;100.00;153584.41;5091656;28;20188;-58
2023/07/16 05:44:44;;;;;;;4.68;4.07;;;;;;;30.07;100.00;153610.06;5091799;28;20549;-58
2023/07/16 05:47:12;;;;;;;4.05;3.88;;;;;;;30.19;100.00;153640.81;5091691;28;20286;-58
2023/07/16 05:49:39;;;;;;;4.68;4.25;;;;;;;30.31;100.00;153671.56;5091506;28;20188;-58
2023/07/16 05:52:08;;;;;;;4.18;3.88;;;;;;;30.57;100.00;153737.00;5091335;28;20318;-58
2023/07/16 05:54:35;;;;;;;3.55;3.38;;;;;;;30.49;100.00;153716.47;5091791;28;20239;-58
2023/07/16 05:57:01;;;;;;;7.22;3.58;;;;;;;30.57;100.00;153735.69;5091312;28;20191;-58
2023/07/16 05:59:28;;;;;;;3.40;3.20;;;;;;;30.39;100.00;153692.06;5091825;28;20191;-58
2023/07/16 06:01:57;;;;;;;3.30;3.05;;;;;;;30.45;100.00;153704.94;5091367;28;20199;-58
2023/07/16 06:04:25;;;;;;;3.03;2.80;;;;;;;30.64;100.00;153754.91;5091311;28;20184;-59
2023/07/16 06:06:52;;;;;;;3.10;2.90;;;;;;;31.04;100.00;153856.28;5091618;28;20196;-58
2023/07/16 06:09:19;;;;;;;3.10;3.00;;;;;;;31.21;100.00;153898.59;5091615;28;20554;-58
2023/07/16 06:11:47;;;;;;;3.15;3.05;;;;;;;31.17;100.00;153888.31;5091269;28;20191;-58
2023/07/16 06:14:14;;;;;;;8.95;3.67;;;;;;;31.49;100.00;153969.09;5091460;28;20570;-58
2023/07/16 06:16:41;;;;;;;6.13;3.05;;;;;;;31.70;100.00;154024.31;5091202;28;20188;-58
2023/07/16 06:19:08;;;;;;;2.78;2.67;;;;;;;32.11;100.00;154128.31;5091336;28;20653;-57
2023/07/16 06:21:36;;;;;;;2.95;2.85;;;;;;;32.70;100.00;154277.19;5091116;28;20184;-57
2023/07/16 06:24:03;;;;;;;2.88;2.78;;;;;;;33.14;100.00;154387.66;5091258;28;20184;-60
2023/07/16 06:26:30;;;;;;;4.13;3.10;;;;;;;33.44;100.00;154464.69;5091277;28;20192;-58
2023/07/16 06:28:57;;;;;;;3.72;3.38;;;;;;;33.57;100.00;154498.03;5091243;28;20192;-58
2023/07/16 06:31:24;;;;;;;2.80;2.67;;;;;;;33.66;100.00;154519.91;5091207;28;20291;-58
2023/07/16 06:33:51;;;;;;;3.05;2.85;;;;;;;34.18;100.00;154652.28;5090957;28;20196;-58
2023/07/16 06:36:18;;;;;;;3.83;3.30;;;;;;;33.77;100.00;154549.50;5091620;28;20185;-57
2023/07/16 06:38:47;;;;;;;4.32;3.15;;;;;;;33.33;100.00;154436.41;5090978;28;20210;-58
2023/07/16 06:41:14;;;;;;;3.70;2.90;;;;;;;33.48;100.00;154474.97;5090999;28;20188;-57
2023/07/16 06:43:41;;;;;;;3.42;3.22;;;;;;;33.22;100.00;154409.47;5091192;28;20211;-57
2023/07/16 06:46:08;;;;;;;2.58;2.47;;;;;;;33.11;100.00;154379.88;5091420;28;20346;-57
2023/07/16 06:48:34;;;;;;;2.90;2.70;;;;;;;33.19;100.00;154400.44;5091095;28;20645;-57
2023/07/16 06:51:01;;;;;;;2.95;2.85;;;;;;;33.19;100.00;154401.75;5093384;28;20338;-58
2023/07/16 06:53:28;;;;;;;3.15;2.90;;;;;;;34.19;100.00;154656.16;5094409;28;20188;-57
2023/07/16 06:55:56;;;;;;;3.65;3.00;;;;;;;34.97;93.21;154852.78;5094506;28;20208;-57
2023/07/16 06:58:32;;;;;;;2.80;2.70;;;;;;;34.82;87.10;154816.78;5094483;28;20562;-60
2023/07/16 07:00:59;;;;;;;2.65;2.55;;;;;;;35.10;84.07;154887.44;5094725;28;20184;-57
2023/07/16 07:03:25;;;;;;;3.30;2.50;;;;;;;34.36;88.63;154698.53;5094746;28;20188;-58
2023/07/16 07:05:52;;;;;;;3.08;2.92;;;;;;;34.33;92.34;154692.06;5094782;28;20642;-58
2023/07/16 07:08:19;;;;;;;2.88;2.78;;;;;;;34.18;94.40;154652.28;5094284;28;20185;-58
2023/07/16 07:10:47;;;;;;;2.92;2.70;;;;;;;34.03;93.78;154615.00;5094607;28;20558;-57
2023/07/16 07:13:16;;;;;;;4.63;2.92;;;;;;;33.90;96.46;154582.88;5094844;28;20561;-57
2023/07/16 07:15:43;;;;;;;3.55;3.35;;;;;;;33.75;100.00;154544.31;5094146;28;20522;-57
2023/07/16 07:18:10;;;;;;;3.35;3.20;;;;;;;33.86;100.00;154572.56;5094172;28;20188;-59
2023/07/16 07:20:37;;;;;;;4.00;3.47;;;;;;;33.57;100.00;154498.03;5094203;28;20199;-57
2023/07/16 07:23:05;;;;;;;4.28;3.97;;;;;;;33.30;100.00;154430.00;5094028;28;20184;-57
2023/07/16 07:25:32;;;;;;;7.00;3.53;;;;;;;33.24;100.00;154413.31;5093913;28;20185;-57
2023/07/16 07:27:59;;;;;;;4.20;4.00;;;;;;;33.05;100.00;154367.06;5094073;28;20187;-58
2023/07/16 07:30:27;;;;;;;3.30;3.10;;;;;;;33.08;100.00;154374.75;5094036;28;20185;-58
2023/07/16 07:32:54;;;;;;;4.57;3.33;;;;;;;32.12;100.00;154130.84;5094118;28;20561;-57
2023/07/16 07:35:21;;;;;;;3.72;3.38;;;;;;;31.66;100.00;154012.75;5093781;28;20286;-58
2023/07/16 07:37:48;;;;;;;3.13;2.90;;;;;;;31.96;100.00;154089.72;5093951;28;20203;-58
2023/07/16 07:40:15;;;;;;;2.95;2.75;;;;;;;32.41;100.00;154204.00;5093926;28;20180;-58
2023/07/16 07:42:42;;;;;;;3.08;2.97;;;;;;;32.49;100.00;154223.25;5094080;28;20195;-58
2023/07/16 07:45:10;;;;;;;3.55;3.25;;;;;;;32.05;100.00;154111.53;5094111;28;20198;-59
2023/07/16 07:47:38;;;;;;;3.22;3.03;;;;;;;31.28;100.00;153916.53;5093940;28;20188;-58
2023/07/16 07:50:06;;;;;;;3.00;2.80;;;;;;;31.42;100.00;153952.44;5093398;28;20615;-57
2023/07/16 07:52:33;;;;;;;3.00;2.85;;;;;;;31.30;100.00;153921.66;5093419;28;20646;-59
2023/07/16 07:55:00;;;;;;;3.03;2.83;;;;;;;31.27;100.00;153915.22;5093455;28;20200;-59
2023/07/16 07:57:27;;;;;;;3.60;2.60;;;;;;;30.81;100.00;153797.22;5093574;28;20191;-58
2023/07/16 07:59:57;;;;;;;2.72;2.63;;;;;;;31.10;100.00;153871.69;5093595;28;20594;-58
2023/07/16 08:02:24;;;;;;;2.60;2.50;;;;;;;31.07;100.00;153862.66;5093159;28;20207;-58
2023/07/16 08:04:53;;;;;;;1.83;1.65;;;;;;;31.14;83.55;153881.94;5093589;28;20188;-59
2023/07/16 08:07:20;;;;;;;2.53;2.42;;;;;;;31.36;100.00;153937.03;5093667;28;20207;-58
2023/07/16 08:09:47;;;;;;;2.72;2.63;;;;;;;31.22;100.00;153902.44;5094299;28;20523;-59
2023/07/16 08:12:14;;;;;;;2.80;2.70;;;;;;;31.23;100.00;153903.75;5093295;28;20207;-58
2023/07/16 08:14:41;;;;;;;2.70;2.60;;;;;;;31.69;100.00;154020.50;5093024;28;20208;-58
2023/07/16 08:17:08;;;;;;;1.83;1.73;;;;;;;32.10;63.17;154125.72;5093393;28;20184;-57
2023/07/16 08:19:35;;;;;;;1.98;1.88;;;;;;;31.94;64.67;154083.34;5093038;28;20202;-59
2023/07/16 08:22:03;;;;;;;1.60;1.60;;;;;;;31.91;59.02;154076.91;5093056;28;20189;-57
2023/07/16 08:24:30;;;;;;;2.50;2.30;;;;;;;31.50;72.96;153971.69;5093226;28;20188;-58
2023/07/16 08:26:57;;;;;;;2.40;2.30;;;;;;;30.93;88.54;153828.03;5093806;28;20188;-59
2023/07/16 08:29:24;;;;;;;2.30;2.20;;;;;;;30.91;91.34;153822.88;5093157;28;20184;-58
2023/07/16 08:31:52;;;;;;;2.42;2.22;;;;;;;31.08;88.22;153866.53;5093432;28;20551;-57
2023/07/16 08:34:19;;;;;;;2.72;2.03;;;;;;;30.73;85.48;153776.72;5092769;28;20194;-58
2023/07/16 08:36:45;;;;;;;2.30;2.20;;;;;;;30.48;99.95;153712.63;5092660;28;20208;-57
2023/07/16 08:39:14;;;;;;;3.20;1.98;;;;;;;30.44;95.34;153702.31;5092678;28;20235;-57
2023/07/16 08:41:41;;;;;;;1.77;1.77;;;;;;;30.42;87.88;153698.50;5092638;28;20241;-58
2023/07/16 08:44:09;;;;;;;2.88;2.38;;;;;;;30.80;93.07;153795.97;5092841;28;20601;-57
2023/07/16 08:46:36;;;;;;;2.15;2.05;;;;;;;30.83;90.06;153802.38;5092699;28;20200;-58
2023/07/16 08:49:06;;;;;;;2.20;2.10;;;;;;;30.84;89.84;153804.94;5092690;28;20189;-58
2023/07/16 08:51:33;;;;;;;1.83;1.73;;;;;;;31.25;79.72;153908.84;5074313;28;20236;-58
2023/07/16 08:54:00;;;;;;;2.15;2.05;;;;;;;31.17;79.20;153888.31;5092590;28;20620;-58
2023/07/16 08:56:28;;;;;;;2.35;2.25;;;;;;;31.07;83.87;153862.66;5092223;28;20203;-58
2023/07/16 08:58:56;;;;;;;2.55;2.45;;;;;;;30.94;83.97;153829.28;5092525;28;20184;-58
2023/07/16 09:01:23;;;;;;;3.90;2.63;;;;;;;31.06;83.59;153861.44;5092570;28;20600;-57
2023/07/16 09:03:50;;;;;;;2.22;2.13;;;;;;;31.25;80.30;153908.84;5092406;28;20578;-58
2023/07/16 09:06:17;;;;;;;2.20;2.10;;;;;;;31.23;75.33;153903.75;5092429;28;20214;-58
2023/07/16 09:08:44;;;;;;;2.33;2.22;;;;;;;31.18;79.06;153892.19;5092171;28;20180;-58
2023/07/16 09:11:13;;;;;;;2.17;2.17;;;;;;;31.12;80.24;153876.78;5092862;28;20188;-58
2023/07/16 09:13:46;;;;;;;2.17;2.08;;;;;;;30.92;75.01;153825.47;5091476;28;20188;-57
2023/07/16 09:16:16;;;;;;;2.05;2.05;;;;;;;30.87;75.88;153811.34;5091813;28;20214;-58
2023/07/16 09:18:43;;;;;;;1.80;1.70;;;;;;;30.83;84.36;153802.38;5092686;28;20224;-57
2023/07/16 09:21:10;;;;;;;2.63;2.20;;;;;;;30.69;77.16;153766.47;5092562;28;20192;-57
2023/07/16 09:23:38;;;;;;;2.13;2.03;;;;;;;30.64;81.49;153753.69;5092094;28;20665;-58
2023/07/16 09:26:05;;;;;;;2.00;1.90;;;;;;;30.55;84.91;153731.88;5092110;28;20618;-57
2023/07/16 09:28:32;;;;;;;2.45;2.25;;;;;;;30.78;84.59;153789.53;5091823;28;20180;-58
2023/07/16 09:31:06;;;;;;;2.53;2.33;;;;;;;30.46;92.43;153707.50;5091744;28;20191;-58
2023/07/16 09:33:34;;;;;;;2.45;2.08;;;;;;;30.70;83.99;153769.03;5092058;28;20589;-58
2023/07/16 09:36:02;;;;;;;1.90;1.80;;;;;;;30.79;79.00;153792.13;5091912;28;20670;-59
2023/07/16 09:38:30;;;;;;;2.38;2.28;;;;;;;31.25;76.20;153910.13;5092041;28;20268;-58
2023/07/16 09:40:58;;;;;;;2.22;2.00;;;;;;;31.71;75.60;154025.59;5092732;28;20614;-58
2023/07/16 09:43:25;;;;;;;3.17;2.17;;;;;;;31.78;77.22;154042.31;5091661;28;20188;-59
2023/07/16 09:45:52;;;;;;;2.50;2.33;;;;;;;31.81;77.17;154051.28;5091594;28;20184;-58
2023/07/16 09:48:20;;;;;;;2.17;1.95;;;;;;;31.56;78.00;153987.13;5091838;28;20192;-58
2023/07/16 09:50:52;;;;;;;2.35;2.33;;;;;;;31.35;78.37;153933.22;5091319;28;20613;-57
2023/07/16 09:53:21;;;;;;;2.20;2.10;;;;;;;31.61;78.17;153999.97;5091526;28;20215;-57
2023/07/16 09:55:50;;;;;;;2.60;2.50;;;;;;;31.54;79.85;153981.94;5091486;28;20200;-57
2023/07/16 09:58:20;;;;;;;2.63;2.53;;;;;;;31.49;77.75;153969.09;5092171;28;20207;-56
2023/07/16 10:00:48;;;;;;;2.10;2.00;;;;;;;31.59;81.92;153996.09;5091919;28;20233;-58
2023/07/16 10:03:17;;;;;;;3.92;2.47;;;;;;;31.71;83.40;154026.88;5091663;28;20557;-58
2023/07/16 10:05:45;;;;;;;2.17;2.08;;;;;;;31.54;75.49;153981.94;5091562;28;20237;-58
2023/07/16 10:08:20;;;;;;;2.72;2.50;;;;;;;30.75;91.54;153781.88;5091698;28;20522;-58
2023/07/16 10:10:51;;;;;;;2.83;2.50;;;;;;;30.14;100.00;153628.00;5091615;28;20183;-59
2023/07/16 10:13:18;;;;;;;2.50;2.40;;;;;;;30.28;93.96;153663.88;5091588;28;20230;-58
2023/07/16 10:16:03;;;;;;;2.60;2.40;;;;;;;30.68;100.00;153763.94;5092304;28;20630;-58
2023/07/16 10:18:31;;;;;;;2.40;2.30;;;;;;;30.41;100.00;153695.94;5091649;28;20287;-58
2023/07/16 10:21:05;;;;;;;2.38;2.28;;;;;;;30.27;100.00;153661.31;5091673;28;20645;-58
2023/07/16 10:23:40;;;;;;;2.25;2.15;;;;;;;30.39;100.00;153692.06;5091218;28;20191;-57
2023/07/16 10:26:09;;;;;;;2.58;2.47;;;;;;;29.84;100.00;153551.03;5095154;28;20190;-58
2023/07/16 10:28:36;;;;;;;2.42;2.33;;;;;;;29.99;100.00;153589.56;5095183;28;20189;-58
2023/07/16 10:31:03;;;;;;;2.30;2.20;;;;;;;30.18;99.61;153638.25;5095410;28;20196;-58
2023/07/16 10:33:30;;;;;;;2.60;2.50;;;;;;;30.18;98.62;153636.94;5095456;28;20251;-57
2023/07/16 10:35:58;;;;;;;4.28;2.30;;;;;;;30.54;80.95;153728.03;5094988;28;20216;-58
2023/07/16 10:38:27;;;;;;;2.38;2.28;;;;;;;30.35;96.86;153681.81;5095310;28;20626;-58
2023/07/16 10:40:54;;;;;;;2.38;2.28;;;;;;;30.32;99.32;153674.13;5095275;28;20211;-58
2023/07/16 10:43:21;;;;;;;2.08;1.90;;;;;;;30.08;94.24;153612.63;5095123;28;20191;-58
2023/07/16 10:45:48;;;;;;;2.42;2.33;;;;;;;29.82;97.18;153545.94;5094928;28;20245;-58
2023/07/16 10:48:15;;;;;;;2.22;2.13;;;;;;;29.82;100.00;153545.94;5094839;28;20199;-57
2023/07/16 10:50:42;;;;;;;3.03;2.83;;;;;;;29.46;100.00;153456.25;5095451;28;20277;-58
2023/07/16 10:53:09;;;;;;;2.72;2.38;;;;;;;29.32;100.00;153420.38;5094750;28;20195;-57
2023/07/16 10:55:38;;;;;;;2.75;2.38;;;;;;;29.06;100.00;153353.75;5094750;28;20215;-58
2023/07/16 10:58:06;;;;;;;2.53;2.30;;;;;;;28.98;100.00;153334.50;5094662;28;20180;-58
2023/07/16 11:00:37;;;;;;;2.50;2.30;;;;;;;28.64;100.00;153246.13;5095748;28;20196;-58
2023/07/16 11:03:04;;;;;;;2.38;2.28;;;;;;;28.75;100.00;153274.34;5094715;28;20558;-59
2023/07/16 11:05:31;;;;;;;2.30;2.20;;;;;;;28.54;100.00;153223.09;5094420;28;20180;-58
2023/07/16 11:07:58;;;;;;;2.50;2.40;;;;;;;28.74;100.00;153271.75;5094465;28;20188;-59
2023/07/16 11:10:28;;;;;;;2.13;2.03;;;;;;;28.67;100.00;153253.81;5094634;28;20202;-58
2023/07/16 11:12:58;;;;;;;2.75;2.65;;;;;;;28.53;100.00;153220.50;5094485;28;20185;-56
2023/07/16 11:15:33;;;;;;;2.33;2.22;;;;;;;28.54;100.00;153223.09;5094542;28;20625;-58
2023/07/16 11:18:00;;;;;;;3.25;2.67;;;;;;;28.36;100.00;153176.97;5094451;28;20179;-57
2023/07/16 11:20:27;;;;;;;2.45;2.28;;;;;;;28.44;100.00;153197.47;5094522;28;20562;-57
2023/07/16 11:22:54;;;;;;;2.30;2.20;;;;;;;28.33;100.00;153169.31;5094522;28;20574;-58